Spalding, Michigan
Current Conditions -  °F | °C
As of 11:15 PM on Friday 24 Oct 2014 (Local Time) from KESC Reporting Station
Overcast Overcast  
Wind Chill: 52°   Ceiling: 2700
Heat Index: 52°   Visibility: 3mi
Dew Point: 46°   Wind: 10mph
Humidity: 82%   Direction: 210°SSW
Pressure: 29.78"   Gusts: NA
Location:  45.7°N, 87.51°W
Report Text: KESC 250415Z AUTO 21009KT 3SM OVC027 11/08 A2978 RMK AO1
Loading
Personal Weather Stations






























Interactive Weather Map New forecast layout! Learn more

10-Day Weather Forecast

Advertisements
Track Severe Weather on mobile